Terminal Aerodrome Forecast
Issued by NWS

Current Version | Previous Version | Text Only | Print | Product List | Glossary On
Versions: 1 2 3 4 5 6 7 8 9 10 11 12 13 14 15 16 17 18 19 20 21
000
FTUS41 KPHI 210500
TAFPNE
TAF
KPNE 210530Z 2106/2206 VRB03KT P6SM BKN012
      TEMPO 2106/2109 BKN009
     FM210900 VRB02KT 4SM BR BKN009
      TEMPO 2112/2115 BKN015
     FM211500 20005KT P6SM SCT020 BKN200
     FM211900 25006KT P6SM SCT250
     FM220500 28006KT P6SM SCT050=

USA.gov is the U.S. government's official web portal to all federal, state and local government web resources and services.